Fire Island Pines, New York
Current Conditions -  °F | °C
As of 11:56 PM on Sunday 21 Dec 2014 (Local Time) from KISP Reporting Station
Overcast Overcast  
Wind Chill: 32°   Ceiling: 800
Heat Index: 37°   Visibility: 10mi
Dew Point: 33°   Wind: 7mph
Humidity: 86%   Direction: 10°N
Pressure: 30.3"   Gusts: NA
Location:  40.7472°N, 73.0832°W
Report Text: KISP 220456Z 01006KT 10SM OVC008 03/01 A3030 RMK AO2 DZE22 SLP262 LAST AUGMENTED OBSERVATION UNTIL 1100Z P0000 T00280006 400280000
Loading
Personal Weather Stations






























Interactive Weather Map New forecast layout! Learn more

10-Day Weather Forecast

Advertisements
Track Severe Weather on mobile